createdAt,value
2018-09-14T00:00:36.178Z,4.05
2018-09-14T00:03:06.519Z,9.68
2018-09-14T00:05:35.403Z,3.58
2018-09-14T00:08:04.991Z,3.92
2018-09-14T00:10:33.991Z,7.00
2018-09-14T00:13:02.899Z,6.67
2018-09-14T00:15:31.973Z,4.35
2018-09-14T00:18:00.951Z,2.45
2018-09-14T00:20:30.047Z,3.40
2018-09-14T00:22:58.955Z,3.30
2018-09-14T00:25:27.927Z,4.33
2018-09-14T00:27:56.821Z,4.87
2018-09-14T00:30:26.767Z,6.17
2018-09-14T00:32:55.651Z,3.30
2018-09-14T00:35:24.619Z,4.22
2018-09-14T00:37:53.531Z,3.25
2018-09-14T00:40:22.522Z,5.00
2018-09-14T00:42:51.451Z,4.45
2018-09-14T00:45:20.359Z,5.30
2018-09-14T00:47:49.300Z,7.12
2018-09-14T00:50:18.300Z,5.15
2018-09-14T00:52:47.227Z,11.45
2018-09-14T00:55:16.178Z,6.33
2018-09-14T00:57:45.105Z,3.30
2018-09-14T01:00:14.031Z,6.08
2018-09-14T01:02:42.986Z,6.62
2018-09-14T01:05:11.876Z,4.95
2018-09-14T01:07:40.788Z,3.77
2018-09-14T01:10:09.754Z,4.50
2018-09-14T01:12:38.655Z,5.30
2018-09-14T01:15:07.658Z,7.20
2018-09-14T01:17:36.660Z,4.67
2018-09-14T01:20:05.814Z,5.22
2018-09-14T01:22:34.737Z,4.00
2018-09-14T01:25:03.691Z,4.97
2018-09-14T01:27:32.598Z,5.47
2018-09-14T01:30:01.552Z,5.78
2018-09-14T01:32:30.527Z,5.58
2018-09-14T01:34:59.477Z,5.30
2018-09-14T01:37:28.379Z,14.35
2018-09-14T01:39:57.289Z,7.35
2018-09-14T01:42:26.240Z,8.33
2018-09-14T01:44:55.147Z,6.87
2018-09-14T01:47:24.086Z,5.28
2018-09-14T01:49:53.030Z,6.12
2018-09-14T01:52:22.012Z,6.95
2018-09-14T01:54:50.895Z,4.92
2018-09-14T01:57:19.860Z,6.80
2018-09-14T01:59:48.775Z,7.97
2018-09-14T02:02:17.702Z,5.78
2018-09-14T02:04:46.715Z,6.80
2018-09-14T02:07:15.718Z,6.75
2018-09-14T02:09:44.647Z,6.75
2018-09-14T02:12:13.565Z,5.72
2018-09-14T02:14:42.489Z,7.10
2018-09-14T02:17:11.415Z,6.33
2018-09-14T02:19:40.391Z,7.62
2018-09-14T02:22:09.309Z,9.03
2018-09-14T02:24:38.230Z,10.90
2018-09-14T02:27:07.196Z,8.05
2018-09-14T02:29:36.190Z,6.30
2018-09-14T02:32:05.372Z,4.42
2018-09-14T02:34:34.408Z,5.25
2018-09-14T02:37:03.884Z,9.30
2018-09-14T02:39:33.114Z,5.22
2018-09-14T02:42:02.145Z,8.85
2018-09-14T02:44:31.051Z,8.25
2018-09-14T02:46:59.974Z,9.33
2018-09-14T02:49:28.939Z,10.15
2018-09-14T02:51:57.846Z,8.50
2018-09-14T02:54:26.870Z,10.70
2018-09-14T02:56:55.829Z,7.95
2018-09-14T02:59:24.767Z,9.65
2018-09-14T03:01:54.110Z,13.32
2018-09-14T03:04:23.152Z,14.10
2018-09-14T03:06:52.064Z,14.87
2018-09-14T03:09:20.952Z,16.07
2018-09-14T03:11:50.907Z,16.10
2018-09-14T03:14:19.799Z,17.60
2018-09-14T03:16:48.774Z,16.60
2018-09-14T03:19:17.685Z,15.35
2018-09-14T03:21:46.571Z,17.05
2018-09-14T03:24:15.545Z,14.33
2018-09-14T03:26:44.448Z,17.62
2018-09-14T03:29:13.360Z,16.30
2018-09-14T03:31:42.281Z,14.75
2018-09-14T03:34:11.212Z,20.35
2018-09-14T03:36:40.163Z,15.38
2018-09-14T03:39:10.159Z,18.10
2018-09-14T03:41:39.209Z,17.60
2018-09-14T03:44:08.172Z,15.63
2018-09-14T03:46:37.100Z,17.32
2018-09-14T03:49:06.079Z,13.40
2018-09-14T03:51:34.975Z,18.73
2018-09-14T03:54:03.931Z,18.40
2018-09-14T03:56:32.865Z,14.70
2018-09-14T03:59:01.748Z,16.05
2018-09-14T04:01:30.722Z,19.95
2018-09-14T04:03:59.620Z,16.48
2018-09-14T04:06:28.592Z,16.97
2018-09-14T04:08:57.477Z,18.73
2018-09-14T04:11:26.465Z,19.23
2018-09-14T04:13:55.368Z,18.50
2018-09-14T04:16:24.290Z,20.48
2018-09-14T04:18:57.850Z,19.77
2018-09-14T04:21:26.804Z,20.25
2018-09-14T04:23:55.765Z,17.85
2018-09-14T04:26:24.755Z,16.32
2018-09-14T04:28:53.888Z,15.58
2018-09-14T04:31:22.813Z,13.83
2018-09-14T04:33:51.748Z,14.70
2018-09-14T04:36:20.682Z,15.08
2018-09-14T04:38:49.699Z,15.78
2018-09-14T04:41:18.642Z,14.95
2018-09-14T04:43:47.642Z,16.17
2018-09-14T04:46:16.555Z,13.85
2018-09-14T04:48:45.478Z,12.90
2018-09-14T04:51:14.614Z,16.12
2018-09-14T04:53:43.627Z,19.90
2018-09-14T04:56:12.512Z,12.40
2018-09-14T04:58:41.394Z,14.20
2018-09-14T05:01:10.302Z,13.75
2018-09-14T05:03:39.212Z,16.48
2018-09-14T05:06:08.145Z,17.57
2018-09-14T05:08:37.090Z,12.13
2018-09-14T05:11:10.993Z,13.68
2018-09-14T05:13:39.886Z,17.98
2018-09-14T05:16:08.824Z,15.15
2018-09-14T05:18:37.833Z,14.45
2018-09-14T05:21:06.911Z,15.10
2018-09-14T05:23:35.814Z,16.32
2018-09-14T05:26:04.783Z,16.05
2018-09-14T05:28:33.747Z,13.83
2018-09-14T05:31:02.699Z,16.97
2018-09-14T05:33:31.695Z,15.93
2018-09-14T05:36:00.623Z,18.32
2018-09-14T05:38:29.612Z,15.88
2018-09-14T05:40:58.510Z,20.00
2018-09-14T05:43:27.444Z,18.55
2018-09-14T05:45:56.415Z,19.02
2018-09-14T05:48:25.395Z,18.07
2018-09-14T05:50:54.333Z,18.32
2018-09-14T05:53:23.360Z,20.20
2018-09-14T05:55:52.316Z,18.50
2018-09-14T05:58:21.362Z,17.60
2018-09-14T06:00:50.363Z,17.37
2018-09-14T06:03:19.357Z,19.52
2018-09-14T06:05:48.256Z,17.87
2018-09-14T06:08:17.157Z,19.75
2018-09-14T06:10:46.149Z,17.17
2018-09-14T06:13:15.083Z,19.75
2018-09-14T06:15:44.030Z,17.20
2018-09-14T06:18:12.986Z,21.05
2018-09-14T06:20:41.998Z,17.42
2018-09-14T06:23:10.935Z,16.70
2018-09-14T06:25:39.924Z,21.05
2018-09-14T06:28:08.842Z,15.93
2018-09-14T06:30:37.868Z,19.92
2018-09-14T06:33:06.823Z,17.12
2018-09-14T06:35:35.770Z,18.90
2018-09-14T06:38:04.712Z,17.62
2018-09-14T06:40:33.706Z,17.20
2018-09-14T06:43:02.730Z,16.85
2018-09-14T06:45:31.648Z,17.27
2018-09-14T06:48:00.660Z,15.65
2018-09-14T06:50:29.644Z,14.50
2018-09-14T06:52:58.579Z,17.82
2018-09-14T06:55:27.571Z,12.13
2018-09-14T06:57:56.555Z,16.35
2018-09-14T07:00:25.699Z,14.25
2018-09-14T07:02:54.747Z,14.35
2018-09-14T07:05:23.787Z,16.80
2018-09-14T07:07:53.095Z,16.40
2018-09-14T07:10:22.312Z,13.13
2018-09-14T07:12:51.317Z,15.75
2018-09-14T07:15:20.548Z,13.00
2018-09-14T07:17:49.602Z,13.98
2018-09-14T07:20:18.744Z,13.15
2018-09-14T07:22:47.657Z,13.32
2018-09-14T07:25:16.624Z,13.10
2018-09-14T07:27:45.586Z,10.93
2018-09-14T07:30:14.605Z,12.23
2018-09-14T07:32:43.612Z,16.23
2018-09-14T07:35:12.611Z,14.98
2018-09-14T07:37:41.680Z,13.88
2018-09-14T07:40:10.715Z,13.72
2018-09-14T07:42:39.749Z,12.10
2018-09-14T07:45:09.171Z,13.95
2018-09-14T07:47:38.211Z,13.70
2018-09-14T07:50:07.300Z,13.65
2018-09-14T07:52:36.363Z,17.07
2018-09-14T07:55:05.412Z,21.37
2018-09-14T07:57:34.498Z,25.15
2018-09-14T08:00:03.625Z,23.77
2018-09-14T08:02:32.623Z,28.87
2018-09-14T08:05:01.651Z,21.50
2018-09-14T08:07:30.663Z,20.15
2018-09-14T08:09:59.641Z,20.20
2018-09-14T08:12:28.664Z,16.12
2018-09-14T08:14:57.632Z,16.93
2018-09-14T08:17:26.654Z,22.87
2018-09-14T08:19:55.750Z,27.02
2018-09-14T08:22:24.764Z,27.40
2018-09-14T08:24:53.688Z,30.45
2018-09-14T08:27:22.703Z,37.67
2018-09-14T08:29:51.665Z,24.02
2018-09-14T08:32:20.699Z,20.05
2018-09-14T08:34:49.636Z,19.35
2018-09-14T08:37:18.616Z,25.55
2018-09-14T08:39:47.616Z,27.55
2018-09-14T08:42:16.526Z,25.15
2018-09-14T08:44:45.446Z,14.70
2018-09-14T08:47:14.364Z,16.45
2018-09-14T08:49:43.308Z,21.25
2018-09-14T08:52:12.256Z,21.57
2018-09-14T08:54:41.150Z,21.35
2018-09-14T08:57:10.079Z,16.07
2018-09-14T08:59:39.069Z,18.27
2018-09-14T09:02:08.027Z,20.65
2018-09-14T09:04:36.969Z,19.73
2018-09-14T09:07:05.997Z,21.73
2018-09-14T09:09:36.103Z,20.25
2018-09-14T09:12:05.064Z,16.95
2018-09-14T09:14:33.952Z,20.77
2018-09-14T09:17:02.879Z,19.77
2018-09-14T09:19:31.823Z,19.85
2018-09-14T09:22:00.894Z,18.00
2018-09-14T09:24:29.792Z,19.52
2018-09-14T09:26:58.699Z,24.05
2018-09-14T09:29:27.686Z,21.87
2018-09-14T09:31:56.618Z,14.30
2018-09-14T09:34:25.583Z,15.95
2018-09-14T09:36:54.624Z,17.73
2018-09-14T09:39:23.551Z,18.87
2018-09-14T09:41:52.464Z,22.90
2018-09-14T09:44:21.450Z,18.27
2018-09-14T09:46:50.360Z,12.23
2018-09-14T09:49:19.300Z,10.48
2018-09-14T09:51:48.180Z,11.90
2018-09-14T09:54:17.121Z,11.12
2018-09-14T09:56:46.254Z,9.18
2018-09-14T09:59:15.103Z,11.12
2018-09-14T10:01:49.306Z,11.10
2018-09-14T10:04:23.419Z,12.13
2018-09-14T10:06:52.414Z,9.70
2018-09-14T10:09:21.373Z,9.50
2018-09-14T10:11:51.723Z,10.23
2018-09-14T10:14:20.708Z,10.35
2018-09-14T10:16:49.634Z,11.00
2018-09-14T10:19:18.549Z,9.50
2018-09-14T10:21:47.591Z,9.70
2018-09-14T10:24:16.491Z,10.40
2018-09-14T10:26:45.557Z,8.70
2018-09-14T10:29:14.419Z,12.35
2018-09-14T10:31:43.314Z,7.03
2018-09-14T10:34:12.247Z,8.90
2018-09-14T10:36:41.128Z,14.00
2018-09-14T10:39:11.128Z,18.00
2018-09-14T10:41:40.048Z,13.85
2018-09-14T10:44:09.017Z,11.12
2018-09-14T10:46:37.919Z,9.93
2018-09-14T10:49:06.859Z,10.65
2018-09-14T10:51:35.865Z,9.95
2018-09-14T10:54:04.833Z,9.73
2018-09-14T10:56:33.732Z,8.30
2018-09-14T10:59:02.680Z,9.23
2018-09-14T11:01:31.608Z,10.30
2018-09-14T11:04:00.551Z,8.58
2018-09-14T11:06:29.464Z,9.50
2018-09-14T11:08:58.354Z,9.80
2018-09-14T11:11:27.280Z,10.08
2018-09-14T11:13:56.184Z,10.53
2018-09-14T11:16:25.184Z,13.15
2018-09-14T11:18:54.122Z,9.73
2018-09-14T11:21:23.306Z,10.55
2018-09-14T11:23:52.230Z,10.28
2018-09-14T11:26:21.188Z,9.05
2018-09-14T11:28:50.092Z,11.12
2018-09-14T11:31:22.004Z,10.50
2018-09-14T11:33:50.904Z,8.60
2018-09-14T11:36:19.885Z,11.50
2018-09-14T11:38:48.831Z,9.88
2018-09-14T11:41:17.770Z,9.75
2018-09-14T11:43:46.670Z,10.75
2018-09-14T11:46:15.563Z,9.53
2018-09-14T11:48:44.503Z,8.85
2018-09-14T11:51:13.470Z,8.20
2018-09-14T11:53:42.684Z,9.20
2018-09-14T11:56:11.798Z,10.58
2018-09-14T11:58:40.854Z,9.58
2018-09-14T12:01:09.767Z,10.08
2018-09-14T12:03:38.714Z,8.43
2018-09-14T12:06:07.635Z,11.78
2018-09-14T12:08:36.587Z,13.50
2018-09-14T12:11:05.566Z,9.98
2018-09-14T12:13:34.463Z,9.93
2018-09-14T12:16:03.384Z,10.53
2018-09-14T12:18:32.297Z,9.88
2018-09-14T12:21:01.288Z,10.15
2018-09-14T12:23:30.270Z,10.65
2018-09-14T12:25:59.871Z,11.50
2018-09-14T12:28:28.810Z,9.60
2018-09-14T12:30:57.949Z,8.85
2018-09-14T12:33:26.903Z,17.73
2018-09-14T12:35:56.253Z,10.85
2018-09-14T12:38:26.731Z,10.05
2018-09-14T12:40:55.850Z,8.80
2018-09-14T12:43:24.758Z,9.75
2018-09-14T12:45:53.665Z,10.38
2018-09-14T12:48:22.748Z,10.28
2018-09-14T12:50:51.627Z,7.80
2018-09-14T12:53:20.603Z,9.28
2018-09-14T12:55:49.510Z,10.28
2018-09-14T12:58:18.466Z,12.37
2018-09-14T13:00:47.726Z,10.65
2018-09-14T13:03:17.280Z,9.98
2018-09-14T13:05:46.379Z,9.43
2018-09-14T13:08:15.564Z,10.75
2018-09-14T13:10:44.612Z,10.65
2018-09-14T13:13:13.939Z,12.10
2018-09-14T13:15:43.094Z,9.80
2018-09-14T13:18:12.300Z,11.20
2018-09-14T13:20:42.297Z,9.28
2018-09-14T13:23:11.279Z,11.73
2018-09-14T13:25:40.338Z,11.30
2018-09-14T13:28:09.304Z,10.10
2018-09-14T13:30:39.191Z,10.78
2018-09-14T13:33:08.359Z,7.03
2018-09-14T13:35:37.467Z,7.58
2018-09-14T13:38:06.647Z,7.25
2018-09-14T13:40:35.754Z,8.23
2018-09-14T13:43:04.822Z,9.40
2018-09-14T13:45:33.804Z,11.30
2018-09-14T13:48:02.807Z,9.28
2018-09-14T13:50:32.830Z,8.05
2018-09-14T13:53:01.806Z,8.48
2018-09-14T13:55:30.701Z,8.58
2018-09-14T13:57:59.689Z,11.55
2018-09-14T14:00:28.575Z,9.73
2018-09-14T14:02:57.582Z,8.83
2018-09-14T14:05:26.500Z,10.70
2018-09-14T14:07:55.494Z,11.65
2018-09-14T14:10:24.500Z,7.95
2018-09-14T14:12:53.415Z,9.15
2018-09-14T14:15:22.329Z,9.73
2018-09-14T14:17:51.311Z,16.40
2018-09-14T14:20:20.277Z,8.53
2018-09-14T14:22:49.242Z,7.25
2018-09-14T14:25:18.244Z,7.47
2018-09-14T14:27:47.197Z,8.25
2018-09-14T14:30:16.896Z,6.92
2018-09-14T14:32:45.928Z,9.38
2018-09-14T14:35:14.995Z,8.85
2018-09-14T14:37:43.929Z,7.30
2018-09-14T14:40:12.883Z,6.90
2018-09-14T14:42:41.786Z,7.60
2018-09-14T14:45:10.695Z,6.87
2018-09-14T14:47:40.108Z,7.10
2018-09-14T14:50:09.072Z,7.22
2018-09-14T14:52:38.027Z,7.17
2018-09-14T14:55:07.010Z,8.35
2018-09-14T14:57:35.889Z,10.00
2018-09-14T15:00:04.908Z,9.93
2018-09-14T15:02:33.872Z,7.85
2018-09-14T15:05:02.804Z,8.05
2018-09-14T15:07:31.755Z,8.55
2018-09-14T15:10:00.715Z,8.90
2018-09-14T15:12:29.699Z,10.72
2018-09-14T15:14:58.688Z,9.93
2018-09-14T15:17:27.697Z,9.08
2018-09-14T15:19:56.607Z,6.65
2018-09-14T15:22:25.553Z,8.90
2018-09-14T15:24:54.489Z,9.45
2018-09-14T15:27:23.440Z,9.45
2018-09-14T15:29:52.337Z,9.25
2018-09-14T15:32:21.268Z,8.18
2018-09-14T15:34:50.212Z,11.40
2018-09-14T15:37:19.366Z,9.78
2018-09-14T15:39:48.576Z,12.13
2018-09-14T15:42:17.589Z,12.45
2018-09-14T15:44:46.609Z,12.88
2018-09-14T15:47:15.642Z,10.85
2018-09-14T15:49:45.116Z,10.20
2018-09-14T15:52:14.029Z,11.15
2018-09-14T15:54:43.070Z,10.82
2018-09-14T15:57:12.060Z,11.33
2018-09-14T15:59:41.064Z,11.60
2018-09-14T16:02:10.374Z,10.55
2018-09-14T16:04:39.314Z,13.00
2018-09-14T16:07:08.263Z,14.45
2018-09-14T16:09:37.212Z,16.32
2018-09-14T16:12:06.115Z,9.48
2018-09-14T16:14:35.040Z,12.45
2018-09-14T16:17:03.972Z,14.00
2018-09-14T16:19:32.901Z,11.25
2018-09-14T16:22:01.905Z,11.48
2018-09-14T16:24:30.784Z,12.20
2018-09-14T16:26:59.720Z,10.93
2018-09-14T16:29:28.669Z,10.63
2018-09-14T16:31:57.601Z,11.08
2018-09-14T16:34:26.494Z,15.28
2018-09-14T16:36:55.563Z,11.35
2018-09-14T16:39:24.547Z,14.53
2018-09-14T16:41:53.443Z,13.68
2018-09-14T16:44:22.470Z,14.75
2018-09-14T16:46:51.353Z,16.42
2018-09-14T16:49:20.403Z,13.78
2018-09-14T16:51:49.306Z,12.43
2018-09-14T16:54:18.237Z,15.38
2018-09-14T16:56:47.124Z,12.00
2018-09-14T16:59:16.085Z,14.78
2018-09-14T17:01:44.998Z,14.90
2018-09-14T17:04:13.948Z,13.32
2018-09-14T17:06:42.873Z,16.17
2018-09-14T17:09:11.899Z,13.88
2018-09-14T17:11:40.880Z,14.15
2018-09-14T17:14:09.867Z,14.33
2018-09-14T17:16:39.156Z,14.70
2018-09-14T17:19:08.526Z,14.85
2018-09-14T17:21:37.537Z,12.20
2018-09-14T17:24:06.458Z,12.78
2018-09-14T17:26:35.534Z,14.30
2018-09-14T17:29:04.425Z,19.62
2018-09-14T17:31:33.335Z,18.67
2018-09-14T17:34:02.232Z,12.50
2018-09-14T17:36:31.163Z,15.13
2018-09-14T17:39:00.044Z,18.60
2018-09-14T17:41:29.049Z,14.83
2018-09-14T17:44:01.880Z,17.75
2018-09-14T17:46:27.264Z,17.07
2018-09-14T17:48:56.211Z,18.55
2018-09-14T17:51:25.152Z,17.98
2018-09-14T17:53:54.084Z,20.97
2018-09-14T17:56:22.982Z,21.93
2018-09-14T17:58:51.884Z,21.00
2018-09-14T18:01:20.890Z,18.25
2018-09-14T18:03:49.829Z,16.57
2018-09-14T18:06:18.793Z,18.70
2018-09-14T18:08:47.750Z,17.60
2018-09-14T18:11:25.205Z,15.25
2018-09-14T18:14:02.007Z,18.82
2018-09-14T18:16:31.098Z,17.90
2018-09-14T18:19:00.075Z,16.65
2018-09-14T18:21:29.021Z,22.35
2018-09-14T18:23:57.990Z,16.48
2018-09-14T18:26:27.034Z,22.10
2018-09-14T18:28:56.063Z,18.70
2018-09-14T18:31:25.298Z,21.48
2018-09-14T18:33:54.379Z,16.95
2018-09-14T18:36:23.403Z,16.15
2018-09-14T18:38:52.518Z,19.05
2018-09-14T18:41:21.689Z,17.20
2018-09-14T18:43:51.293Z,21.02
2018-09-14T18:46:20.897Z,15.65
2018-09-14T18:48:50.095Z,15.05
2018-09-14T18:51:19.917Z,16.62
2018-09-14T18:53:48.891Z,16.77
2018-09-14T18:56:17.880Z,14.80
2018-09-14T18:58:46.927Z,12.95
2018-09-14T19:01:15.907Z,14.10
2018-09-14T19:03:44.976Z,15.45
2018-09-14T19:06:14.144Z,17.73
2018-09-14T19:08:43.144Z,15.90
2018-09-14T19:11:12.200Z,18.07
2018-09-14T19:13:41.589Z,14.38
2018-09-14T19:16:10.585Z,12.47
2018-09-14T19:18:39.546Z,11.08
2018-09-14T19:21:08.577Z,15.88
2018-09-14T19:23:37.619Z,11.20
2018-09-14T19:26:06.637Z,12.40
2018-09-14T19:28:35.583Z,11.05
2018-09-14T19:31:05.315Z,14.05
2018-09-14T19:33:34.503Z,13.58
2018-09-14T19:36:03.787Z,14.75
2018-09-14T19:38:33.276Z,13.28
2018-09-14T19:41:02.406Z,11.28
2018-09-14T19:43:31.428Z,10.85
2018-09-14T19:46:01.198Z,9.28
2018-09-14T19:48:30.217Z,10.03
2018-09-14T19:50:59.218Z,9.00
2018-09-14T19:53:28.183Z,12.78
2018-09-14T19:55:57.136Z,12.00
2018-09-14T19:58:26.043Z,12.28
2018-09-14T20:00:55.127Z,11.15
2018-09-14T20:03:24.105Z,15.40
2018-09-14T20:05:53.127Z,10.45
2018-09-14T20:08:22.108Z,9.53
2018-09-14T20:10:51.032Z,11.05
2018-09-14T20:13:20.049Z,11.88
2018-09-14T20:15:49.017Z,11.55
2018-09-14T20:18:18.064Z,11.38
2018-09-14T20:20:47.597Z,9.55
2018-09-14T20:23:16.559Z,11.70
2018-09-14T20:25:45.468Z,12.70
2018-09-14T20:28:14.556Z,10.40
2018-09-14T20:30:43.512Z,13.58
2018-09-14T20:33:12.545Z,8.73
2018-09-14T20:35:41.553Z,11.28
2018-09-14T20:38:11.553Z,9.38
2018-09-14T20:40:40.550Z,8.70
2018-09-14T20:43:10.387Z,11.25
2018-09-14T20:45:39.402Z,11.83
2018-09-14T20:48:08.445Z,9.00
2018-09-14T20:50:37.781Z,11.00
2018-09-14T20:53:06.744Z,10.68
2018-09-14T20:55:35.745Z,8.60
2018-09-14T20:58:04.725Z,9.40
2018-09-14T21:00:33.711Z,10.13
2018-09-14T21:03:02.676Z,9.38
2018-09-14T21:05:32.260Z,8.33
2018-09-14T21:08:01.322Z,9.28
2018-09-14T21:10:30.281Z,7.53
2018-09-14T21:12:59.246Z,8.65
2018-09-14T21:15:28.153Z,6.50
2018-09-14T21:17:57.395Z,9.25
2018-09-14T21:20:26.287Z,10.18
2018-09-14T21:22:55.228Z,8.03
2018-09-14T21:25:24.195Z,8.48
2018-09-14T21:27:53.230Z,9.25
2018-09-14T21:30:22.150Z,5.97
2018-09-14T21:32:51.095Z,6.85
2018-09-14T21:35:19.980Z,9.75
2018-09-14T21:37:48.889Z,6.53
2018-09-14T21:40:17.910Z,8.43
2018-09-14T21:42:46.826Z,9.85
2018-09-14T21:45:15.789Z,7.00
2018-09-14T21:47:44.711Z,7.45
2018-09-14T21:50:13.647Z,6.70
2018-09-14T21:52:42.702Z,6.50
2018-09-14T21:55:11.703Z,7.65
2018-09-14T21:57:40.650Z,10.38
2018-09-14T22:00:15.826Z,8.38
2018-09-14T22:02:44.808Z,9.05
2018-09-14T22:05:14.187Z,10.18
2018-09-14T22:07:43.138Z,12.20
2018-09-14T22:10:12.094Z,10.58
2018-09-14T22:12:40.991Z,18.55
2018-09-14T22:15:09.932Z,19.12
2018-09-14T22:17:38.859Z,25.15
2018-09-14T22:20:08.193Z,23.62
2018-09-14T22:22:37.112Z,23.05
2018-09-14T22:25:06.079Z,23.95
2018-09-14T22:27:35.100Z,28.23
2018-09-14T22:30:04.088Z,24.77
2018-09-14T22:32:33.040Z,24.20
2018-09-14T22:35:02.008Z,25.43
2018-09-14T22:37:30.968Z,22.62
2018-09-14T22:39:59.846Z,20.65
2018-09-14T22:42:28.802Z,22.75
2018-09-14T22:44:57.723Z,23.83
2018-09-14T22:47:26.612Z,21.85
2018-09-14T22:49:55.570Z,21.00
2018-09-14T22:52:24.479Z,18.85
2018-09-14T22:54:53.420Z,22.15
2018-09-14T22:57:22.392Z,20.62
2018-09-14T22:59:51.338Z,17.00
2018-09-14T23:02:20.287Z,18.25
2018-09-14T23:04:49.234Z,17.30
2018-09-14T23:07:18.121Z,19.98
2018-09-14T23:09:47.068Z,20.55
2018-09-14T23:12:15.949Z,19.85
2018-09-14T23:14:44.897Z,18.80
2018-09-14T23:17:13.793Z,17.65
2018-09-14T23:19:42.679Z,23.90
2018-09-14T23:22:11.634Z,20.80
2018-09-14T23:24:40.528Z,20.00
2018-09-14T23:27:09.457Z,15.30
2018-09-14T23:29:38.396Z,19.02
2018-09-14T23:32:07.308Z,21.25
2018-09-14T23:34:36.192Z,15.25
2018-09-14T23:37:05.093Z,18.37
2018-09-14T23:39:34.069Z,22.50
2018-09-14T23:42:02.988Z,19.48
2018-09-14T23:44:31.896Z,20.05
2018-09-14T23:47:00.832Z,15.63
2018-09-14T23:49:29.734Z,20.80
2018-09-14T23:51:58.670Z,20.90
2018-09-14T23:54:27.621Z,21.37
2018-09-14T23:56:56.534Z,21.17
2018-09-14T23:59:25.508Z,20.27
